Time;durP1;ratioP1;P1;durP2;ratioP2;P2;SDS_P1;SDS_P2;PMS_P1;PMS_P2;Temp;Humidity;BMP_temperature;BMP_pressure;BME280_temperature;BME280_humidity;BME280_pressure;Samples;Min_cycle;Max_cycle;Signal;HPM_P1;HPM_P2
2023/04/02 00:01:54;;;;;;;2.70;2.50;;;7.80;99.90;;;;;;5037108;28;20232;-80
2023/04/02 00:04:21;;;;;;;2.90;2.43;;;7.70;99.90;;;;;;5036339;28;20168;-80
2023/04/02 00:06:53;;;;;;;3.10;2.80;;;7.80;99.90;;;;;;5038417;28;20168;-80
2023/04/02 00:09:28;;;;;;;3.00;2.70;;;7.80;99.90;;;;;;5038679;28;20157;-81
2023/04/02 00:11:54;;;;;;;2.50;2.30;;;7.80;99.90;;;;;;5038617;28;20287;-80
2023/04/02 00:14:26;;;;;;;2.70;2.40;;;7.70;99.90;;;;;;5039979;28;20176;-80
2023/04/02 00:16:54;;;;;;;2.63;2.43;;;7.70;99.90;;;;;;5040641;28;20176;-80
2023/04/02 00:19:35;;;;;;;2.40;2.17;;;7.60;99.90;;;;;;5042001;28;20200;-80
2023/04/02 00:22:02;;;;;;;2.93;2.00;;;7.60;99.90;;;;;;5040682;28;20223;-79
2023/04/02 00:24:28;;;;;;;2.20;2.00;;;7.60;99.90;;;;;;5041059;28;20390;-79
2023/04/02 00:26:54;;;;;;;2.03;1.93;;;7.60;99.90;;;;;;5041753;28;20192;-80
2023/04/02 00:29:20;;;;;;;2.90;2.60;;;7.60;99.90;;;;;;5040624;28;20294;-80
2023/04/02 00:31:53;;;;;;;2.80;2.60;;;7.60;99.90;;;;;;5041108;28;20263;-80
2023/04/02 00:34:22;;;;;;;2.53;2.33;;;7.50;99.90;;;;;;5040672;28;20244;-81
2023/04/02 00:36:49;;;;;;;2.77;2.40;;;7.50;99.90;;;;;;5040144;28;20179;-80
2023/04/02 00:39:41;;;;;;;2.97;2.60;;;7.50;99.90;;;;;;5040892;28;20198;-80
2023/04/02 00:42:11;;;;;;;9.50;2.43;;;7.50;99.90;;;;;;5037342;28;20200;-80
2023/04/02 00:44:43;;;;;;;2.50;2.30;;;7.50;99.90;;;;;;5039713;28;20176;-80
2023/04/02 00:47:15;;;;;;;2.83;2.60;;;7.50;99.90;;;;;;5040254;28;20161;-80
2023/04/02 00:49:42;;;;;;;2.70;2.30;;;7.40;99.90;;;;;;5042166;28;20294;-80
2023/04/02 00:52:12;;;;;;;2.70;2.27;;;7.30;99.90;;;;;;5041693;28;20220;-80
2023/04/02 00:54:48;;;;;;;2.63;2.43;;;7.30;99.90;;;;;;5041803;28;20168;-80
2023/04/02 00:57:24;;;;;;;2.77;2.57;;;7.30;99.90;;;;;;5040577;28;20170;-80
2023/04/02 00:59:53;;;;;;;2.43;2.23;;;7.30;99.90;;;;;;5039613;28;20175;-80
2023/04/02 01:02:25;;;;;;;2.50;2.30;;;7.20;99.90;;;;;;5041418;28;20672;-80
2023/04/02 01:05:06;;;;;;;2.60;2.40;;;7.20;99.90;;;;;;5041170;28;20632;-80
2023/04/02 01:07:46;;;;;;;3.43;3.13;;;7.20;99.90;;;;;;5039770;28;20268;-80
2023/04/02 01:10:43;;;;;;;3.50;3.10;;;7.20;99.90;;;;;;5041344;28;20152;-80
2023/04/02 01:13:23;;;;;;;3.40;3.10;;;7.20;99.90;;;;;;5041056;28;20260;-80
2023/04/02 01:16:08;;;;;;;4.20;3.80;;;7.10;99.90;;;;;;5041114;28;20164;-80
2023/04/02 01:18:55;;;;;;;4.17;3.77;;;7.10;99.90;;;;;;5041167;28;20196;-80
2023/04/02 01:21:35;;;;;;;4.27;3.47;;;7.10;99.90;;;;;;5041364;28;20231;-81
2023/04/02 01:24:04;;;;;;;4.30;3.90;;;7.10;99.90;;;;;;5041599;28;20492;-79
2023/04/02 01:26:36;;;;;;;4.73;4.23;;;7.00;99.90;;;;;;5039614;28;20176;-80
2023/04/02 01:29:05;;;;;;;4.30;3.90;;;7.00;99.90;;;;;;5041027;28;20177;-79
2023/04/02 01:31:33;;;;;;;4.80;4.27;;;7.00;99.90;;;;;;5039750;28;20176;-80
2023/04/02 01:34:01;;;;;;;4.43;3.97;;;6.90;99.90;;;;;;5041540;28;20185;-80
2023/04/02 01:36:41;;;;;;;4.13;3.40;;;6.90;99.90;;;;;;5041077;28;20176;-80
2023/04/02 01:39:23;;;;;;;3.90;3.50;;;6.90;99.90;;;;;;5040550;28;20195;-80
2023/04/02 01:42:11;;;;;;;4.53;4.00;;;6.80;99.90;;;;;;5039349;28;20316;-80
2023/04/02 01:44:49;;;;;;;3.80;3.47;;;6.80;99.90;;;;;;5038649;28;20171;-79
2023/04/02 01:47:18;;;;;;;4.00;3.60;;;6.80;99.90;;;;;;5038511;28;20164;-80
2023/04/02 01:49:45;;;;;;;3.70;3.33;;;6.80;99.90;;;;;;5040905;28;20168;-80
2023/04/02 01:52:33;;;;;;;3.03;2.67;;;6.80;99.90;;;;;;5040150;28;20188;-80
2023/04/02 01:54:58;;;;;;;3.40;3.10;;;6.70;99.90;;;;;;5039381;28;20551;-79
2023/04/02 01:57:26;;;;;;;3.53;3.10;;;6.70;99.90;;;;;;5040762;28;20212;-80
2023/04/02 01:59:52;;;;;;;4.03;3.13;;;6.70;99.90;;;;;;5039152;28;20635;-79
2023/04/02 02:02:20;;;;;;;3.40;3.10;;;6.70;99.90;;;;;;5038877;28;20711;-80
2023/04/02 02:04:46;;;;;;;2.90;2.50;;;6.70;99.90;;;;;;5040757;28;20555;-79
2023/04/02 02:07:19;;;;;;;3.47;3.17;;;6.60;99.90;;;;;;5039670;28;20225;-81
2023/04/02 02:09:46;;;;;;;4.93;3.40;;;6.60;99.90;;;;;;5041261;28;20180;-79
2023/04/02 02:12:13;;;;;;;3.33;3.03;;;6.60;99.90;;;;;;5042635;28;20219;-80
2023/04/02 02:14:46;;;;;;;3.77;3.37;;;6.60;99.90;;;;;;5040774;28;20559;-80
2023/04/02 02:17:16;;;;;;;3.93;3.40;;;6.60;99.90;;;;;;5039341;28;20180;-80
2023/04/02 02:19:44;;;;;;;3.57;3.27;;;6.50;99.90;;;;;;5041250;28;20286;-79
2023/04/02 02:22:29;;;;;;;3.17;2.97;;;6.60;99.90;;;;;;5041893;28;20184;-80
2023/04/02 02:24:58;;;;;;;3.40;2.67;;;6.70;99.90;;;;;;5041730;28;20251;-79
2023/04/02 02:27:24;;;;;;;3.63;3.10;;;6.50;99.90;;;;;;5041346;28;20172;-79
2023/04/02 02:29:56;;;;;;;3.03;2.77;;;6.50;99.90;;;;;;5041685;28;20211;-80
2023/04/02 02:32:27;;;;;;;3.57;2.93;;;6.50;99.90;;;;;;5041466;28;20192;-79
2023/04/02 02:35:17;;;;;;;3.33;3.03;;;6.40;99.90;;;;;;5041409;28;20172;-80
2023/04/02 02:37:47;;;;;;;3.43;2.60;;;6.40;99.90;;;;;;5041789;28;20230;-82
2023/04/02 02:40:26;;;;;;;3.03;2.73;;;6.40;99.90;;;;;;5043507;28;20179;-80
2023/04/02 02:42:56;;;;;;;2.40;2.20;;;6.40;99.90;;;;;;5041258;28;20188;-80
2023/04/02 02:45:28;;;;;;;3.03;2.73;;;6.40;99.90;;;;;;5040549;28;20192;-81
2023/04/02 02:47:55;;;;;;;6.80;2.70;;;6.30;99.90;;;;;;5041933;28;20184;-80
2023/04/02 02:50:24;;;;;;;3.30;3.00;;;6.40;99.90;;;;;;5040350;28;20230;-80
2023/04/02 02:52:54;;;;;;;3.77;2.67;;;6.30;99.90;;;;;;5043237;28;20675;-80
2023/04/02 02:55:26;;;;;;;3.43;2.73;;;6.30;99.90;;;;;;5038249;28;20271;-79
2023/04/02 02:58:06;;;;;;;3.27;2.97;;;6.20;99.90;;;;;;5037657;28;20207;-81
2023/04/02 03:00:34;;;;;;;3.27;2.93;;;6.30;99.90;;;;;;5039499;28;20176;-80
2023/04/02 03:03:03;;;;;;;3.20;2.70;;;6.20;99.90;;;;;;5039844;28;20188;-80
2023/04/02 03:05:29;;;;;;;3.23;2.90;;;6.20;99.90;;;;;;5038320;28;20664;-80
2023/04/02 03:07:57;;;;;;;3.50;3.20;;;6.30;99.90;;;;;;5039484;28;20210;-80
2023/04/02 03:10:28;;;;;;;3.37;2.80;;;6.20;99.90;;;;;;5037343;28;20184;-81
2023/04/02 03:13:21;;;;;;;3.90;3.10;;;6.20;99.90;;;;;;5039095;28;20283;-80
2023/04/02 03:15:49;;;;;;;4.30;3.30;;;6.20;99.90;;;;;;5038876;28;20176;-79
2023/04/02 03:18:30;;;;;;;3.70;2.60;;;6.30;99.90;;;;;;5037347;28;20208;-80
2023/04/02 03:21:01;;;;;;;3.80;2.83;;;6.20;99.90;;;;;;5038152;28;20180;-81
2023/04/02 03:23:34;;;;;;;4.33;2.90;;;6.20;99.90;;;;;;5039383;28;20299;-80
2023/04/02 03:26:10;;;;;;;3.40;3.10;;;6.20;99.90;;;;;;5039341;28;20172;-79
2023/04/02 03:28:42;;;;;;;3.17;2.80;;;6.20;99.90;;;;;;5039255;28;20176;-80
2023/04/02 03:31:18;;;;;;;3.30;3.00;;;6.20;99.90;;;;;;5037814;28;20180;-80
2023/04/02 03:34:00;;;;;;;3.30;2.93;;;6.20;99.90;;;;;;5039035;28;20164;-80
2023/04/02 03:36:34;;;;;;;4.83;3.00;;;6.20;99.90;;;;;;5039143;28;20179;-80
2023/04/02 03:39:23;;;;;;;2.87;2.60;;;6.10;99.90;;;;;;5038827;28;20666;-80
2023/04/02 03:41:56;;;;;;;3.63;3.10;;;6.10;99.90;;;;;;5038580;28;20184;-80
2023/04/02 03:44:42;;;;;;;3.63;2.70;;;6.10;99.90;;;;;;5037479;28;20168;-80
2023/04/02 03:47:34;;;;;;;3.17;2.70;;;6.10;99.90;;;;;;5038292;28;20171;-79
2023/04/02 03:50:23;;;;;;;3.93;3.23;;;6.10;99.90;;;;;;5041553;28;20171;-79
2023/04/02 03:52:49;;;;;;;4.07;2.90;;;6.10;99.90;;;;;;5042783;28;20188;-80
2023/04/02 03:55:20;;;;;;;3.33;3.03;;;6.00;99.90;;;;;;5042906;28;20168;-79
2023/04/02 03:57:58;;;;;;;2.93;2.63;;;6.00;99.90;;;;;;5043018;28;20164;-80
2023/04/02 04:00:31;;;;;;;3.00;2.70;;;5.90;99.90;;;;;;5042486;28;20168;-80
2023/04/02 04:03:14;;;;;;;4.13;3.37;;;5.90;99.90;;;;;;5042195;28;20682;-80
2023/04/02 04:05:52;;;;;;;3.67;3.20;;;5.90;99.90;;;;;;5042348;28;20168;-80
2023/04/02 04:08:22;;;;;;;3.40;3.10;;;5.90;99.90;;;;;;5042152;28;20184;-80
2023/04/02 04:10:54;;;;;;;3.40;2.80;;;5.80;99.90;;;;;;5040967;28;20194;-79
2023/04/02 04:13:29;;;;;;;3.90;3.07;;;5.80;99.90;;;;;;5039996;28;20246;-80
2023/04/02 04:16:05;;;;;;;4.23;3.17;;;5.80;99.90;;;;;;5041899;28;20167;-80
2023/04/02 04:18:40;;;;;;;4.03;3.63;;;5.70;99.90;;;;;;5040486;28;20208;-81
2023/04/02 04:21:28;;;;;;;3.77;3.40;;;5.70;99.90;;;;;;5041468;28;20156;-80
2023/04/02 04:23:56;;;;;;;4.10;3.30;;;5.70;99.90;;;;;;5040629;28;20172;-81
2023/04/02 04:26:29;;;;;;;4.83;3.83;;;5.70;99.90;;;;;;5039951;28;20176;-80
2023/04/02 04:29:30;;;;;;;5.57;4.30;;;5.70;99.90;;;;;;5041907;28;20164;-80
2023/04/02 04:32:09;;;;;;;4.07;3.67;;;5.70;99.90;;;;;;5041855;28;20575;-80
2023/04/02 04:34:52;;;;;;;4.10;3.70;;;5.70;99.90;;;;;;5042271;28;20585;-80
2023/04/02 04:37:32;;;;;;;4.63;3.60;;;5.70;99.90;;;;;;5040413;28;20172;-80
2023/04/02 04:40:00;;;;;;;4.50;4.07;;;5.70;99.90;;;;;;5041679;28;20211;-80
2023/04/02 04:42:30;;;;;;;5.47;3.87;;;5.70;99.90;;;;;;5041383;28;20193;-80
2023/04/02 04:45:07;;;;;;;5.30;4.00;;;5.70;99.90;;;;;;5039782;28;20168;-80
2023/04/02 04:47:37;;;;;;;5.53;3.63;;;5.70;99.90;;;;;;5040392;28;20180;-80
2023/04/02 04:50:12;;;;;;;7.30;4.23;;;5.60;99.90;;;;;;5041439;28;20189;-80
2023/04/02 04:52:39;;;;;;;7.47;4.67;;;5.60;99.90;;;;;;5040872;28;20660;-81
2023/04/02 04:55:38;;;;;;;6.13;4.33;;;5.60;99.90;;;;;;5041728;28;20175;-80
2023/04/02 04:58:14;;;;;;;4.77;4.33;;;5.60;99.90;;;;;;5039711;28;20208;-81
2023/04/02 05:00:55;;;;;;;5.40;4.37;;;5.60;99.90;;;;;;5038802;28;20551;-81
2023/04/02 05:03:32;;;;;;;7.07;4.27;;;5.60;99.90;;;;;;5040870;28;20184;-81
2023/04/02 05:06:25;;;;;;;5.67;4.70;;;5.60;99.90;;;;;;5039410;28;20180;-80
2023/04/02 05:08:55;;;;;;;7.43;5.10;;;5.60;99.90;;;;;;5041541;28;20160;-80
2023/04/02 05:11:31;;;;;;;6.57;4.13;;;5.60;99.90;;;;;;5039572;28;20246;-81
2023/04/02 05:14:02;;;;;;;7.50;4.83;;;5.60;99.90;;;;;;5039862;28;20670;-81
2023/04/02 05:17:00;;;;;;;6.73;4.63;;;5.60;99.90;;;;;;5041124;28;20157;-80
2023/04/02 05:19:47;;;;;;;6.30;4.63;;;5.50;99.90;;;;;;5033448;28;20395;-80
2023/04/02 05:22:37;;;;;;;6.47;4.50;;;5.50;99.90;;;;;;5044087;28;20199;-79
2023/04/02 05:25:21;;;;;;;5.27;4.63;;;5.50;99.90;;;;;;5044098;28;20161;-80
2023/04/02 05:28:00;;;;;;;6.60;4.73;;;5.40;99.90;;;;;;5039830;28;20176;-80
2023/04/02 05:30:26;;;;;;;8.63;5.70;;;5.50;99.90;;;;;;5038834;28;20183;-80
2023/04/02 05:33:24;;;;;;;7.13;5.60;;;5.40;99.90;;;;;;5039058;28;20255;-83
2023/04/02 05:35:56;;;;;;;10.37;5.93;;;5.30;99.90;;;;;;5038753;28;20168;-78
2023/04/02 05:38:30;;;;;;;9.83;5.53;;;5.30;99.90;;;;;;5039730;28;20199;-79
2023/04/02 05:41:02;;;;;;;11.17;5.67;;;5.30;99.90;;;;;;5037845;28;20740;-80
2023/04/02 05:43:32;;;;;;;13.30;5.83;;;5.20;99.90;;;;;;5038456;28;20254;-78
2023/04/02 05:46:02;;;;;;;8.03;5.77;;;5.30;99.90;;;;;;5037041;28;20192;-79
2023/04/02 05:48:42;;;;;;;10.00;5.80;;;5.20;99.90;;;;;;5038001;28;20598;-79
2023/04/02 05:51:14;;;;;;;10.40;6.23;;;5.20;99.90;;;;;;5038305;28;20175;-80
2023/04/02 05:53:59;;;;;;;10.83;7.07;;;5.20;99.90;;;;;;5037832;28;20762;-78
2023/04/02 05:56:30;;;;;;;10.90;6.53;;;5.20;99.90;;;;;;5037961;28;20192;-79
2023/04/02 05:59:10;;;;;;;8.07;5.73;;;5.20;99.90;;;;;;5037751;28;20195;-78
2023/04/02 06:01:54;;;;;;;13.17;6.07;;;5.20;99.90;;;;;;5036556;28;20176;-79
2023/04/02 06:04:42;;;;;;;9.33;6.33;;;5.20;99.90;;;;;;5037746;28;20160;-79
2023/04/02 06:07:14;;;;;;;9.23;6.53;;;5.20;99.90;;;;;;5038075;28;20184;-78
2023/04/02 06:09:52;;;;;;;11.23;6.37;;;5.20;99.90;;;;;;5037979;28;20260;-79
2023/04/02 06:12:36;;;;;;;10.63;6.57;;;5.20;99.90;;;;;;5037679;28;20298;-79
2023/04/02 06:15:05;;;;;;;9.17;5.80;;;5.30;99.90;;;;;;5037735;28;20226;-78
2023/04/02 06:17:41;;;;;;;8.17;6.30;;;5.30;99.90;;;;;;5037089;28;20514;-80
2023/04/02 06:20:14;;;;;;;10.07;5.90;;;5.30;99.90;;;;;;5038268;28;20160;-79
2023/04/02 06:22:43;;;;;;;9.27;6.53;;;5.30;99.90;;;;;;5039247;28;20296;-80
2023/04/02 06:25:21;;;;;;;9.73;5.93;;;5.30;99.90;;;;;;5038246;28;20738;-80
2023/04/02 06:27:49;;;;;;;6.80;5.37;;;5.30;99.90;;;;;;5036353;28;20176;-78
2023/04/02 06:30:24;;;;;;;9.67;6.23;;;5.40;99.90;;;;;;5035747;28;20203;-79
2023/04/02 06:32:49;;;;;;;8.83;5.47;;;5.40;99.90;;;;;;5036653;28;20234;-79
2023/04/02 06:35:16;;;;;;;10.20;5.33;;;5.30;99.90;;;;;;5034911;28;20180;-78
2023/04/02 06:37:45;;;;;;;8.07;6.07;;;5.40;99.90;;;;;;5036517;28;20621;-79
2023/04/02 06:40:45;;;;;;;11.43;6.00;;;5.30;99.90;;;;;;5034710;28;20176;-78
2023/04/02 06:43:38;;;;;;;10.97;6.03;;;5.30;99.90;;;;;;5022978;28;20204;-79
2023/04/02 06:46:25;;;;;;;10.40;5.93;;;5.30;99.90;;;;;;5034325;28;20172;-78
2023/04/02 06:48:55;;;;;;;13.73;6.57;;;5.30;99.90;;;;;;5035201;28;20187;-79
2023/04/02 06:51:23;;;;;;;8.67;6.20;;;5.20;99.90;;;;;;5037015;28;20255;-80
2023/04/02 06:53:50;;;;;;;6.97;5.40;;;5.20;99.90;;;;;;5036711;28;20252;-80
2023/04/02 06:56:48;;;;;;;6.57;4.60;;;5.20;99.90;;;;;;5035802;28;20259;-78
2023/04/02 06:59:14;;;;;;;9.63;5.77;;;5.20;99.90;;;;;;5027247;28;20220;-79
2023/04/02 07:01:57;;;;;;;9.10;5.13;;;5.20;99.90;;;;;;5035732;28;20267;-78
2023/04/02 07:04:24;;;;;;;9.97;5.23;;;5.20;99.90;;;;;;5036094;28;20175;-79
2023/04/02 07:06:50;;;;;;;8.63;5.50;;;5.20;99.90;;;;;;5035793;28;20195;-78
2023/04/02 07:09:16;;;;;;;7.90;4.93;;;5.20;99.90;;;;;;5035608;28;20176;-78
2023/04/02 07:11:41;;;;;;;8.07;4.70;;;5.30;99.90;;;;;;5035705;28;20235;-78
2023/04/02 07:14:11;;;;;;;8.63;4.93;;;5.20;99.90;;;;;;5032850;28;20674;-77
2023/04/02 07:16:36;;;;;;;7.23;4.60;;;5.30;99.90;;;;;;5032933;28;20655;-78
2023/04/02 07:19:03;;;;;;;12.53;4.90;;;5.30;99.90;;;;;;5034048;28;20207;-78
2023/04/02 07:21:29;;;;;;;4.63;3.80;;;5.30;99.90;;;;;;5034354;28;20649;-79
2023/04/02 07:23:55;;;;;;;6.80;4.03;;;5.30;99.90;;;;;;5034886;28;20172;-79
2023/04/02 07:26:26;;;;;;;7.83;4.10;;;5.30;99.90;;;;;;5036182;28;20211;-79
2023/04/02 07:28:55;;;;;;;4.63;3.57;;;5.30;99.90;;;;;;5036041;28;20537;-79
2023/04/02 07:31:24;;;;;;;6.50;3.87;;;5.40;99.90;;;;;;5035742;28;20176;-79
2023/04/02 07:33:51;;;;;;;6.70;4.30;;;5.40;99.90;;;;;;5036186;28;20233;-79
2023/04/02 07:36:21;;;;;;;7.17;4.17;;;5.40;99.90;;;;;;5035497;28;20172;-79
2023/04/02 07:38:47;;;;;;;9.77;4.67;;;5.30;99.90;;;;;;5035100;28;20223;-79
2023/04/02 07:41:13;;;;;;;7.57;4.67;;;5.30;99.90;;;;;;5033887;28;20177;-78
2023/04/02 07:43:40;;;;;;;9.83;5.00;;;5.30;99.90;;;;;;5035424;28;20729;-78
2023/04/02 07:46:06;;;;;;;9.20;4.50;;;5.30;99.90;;;;;;5035018;28;20169;-79
2023/04/02 07:48:32;;;;;;;7.10;4.60;;;5.30;99.90;;;;;;5036014;28;20207;-79
2023/04/02 07:51:01;;;;;;;6.57;4.37;;;5.30;99.90;;;;;;5035831;28;20175;-78
2023/04/02 07:53:33;;;;;;;4.70;3.63;;;5.30;99.90;;;;;;5036163;28;20199;-79
2023/04/02 07:56:01;;;;;;;6.13;4.13;;;5.30;99.90;;;;;;5036356;28;20616;-79
2023/04/02 07:58:28;;;;;;;6.63;4.30;;;5.40;99.90;;;;;;5034024;28;20253;-79
2023/04/02 08:00:54;;;;;;;5.47;3.53;;;5.40;99.90;;;;;;5035809;28;20196;-79
2023/04/02 08:03:20;;;;;;;6.03;3.67;;;5.40;99.90;;;;;;5036050;28;20214;-79
2023/04/02 08:05:55;;;;;;;10.57;3.87;;;5.40;99.90;;;;;;5034553;28;20711;-79
2023/04/02 08:08:22;;;;;;;5.10;3.23;;;5.40;99.90;;;;;;5036505;28;20156;-79
2023/04/02 08:10:48;;;;;;;7.47;3.50;;;5.30;99.90;;;;;;5033965;28;20194;-79
2023/04/02 08:13:15;;;;;;;4.37;3.27;;;5.30;99.90;;;;;;5034107;28;20202;-79
2023/04/02 08:15:41;;;;;;;6.40;3.53;;;5.30;99.90;;;;;;5034369;28;20267;-79
2023/04/02 08:18:07;;;;;;;10.57;3.63;;;5.30;99.90;;;;;;5035831;28;20204;-79
2023/04/02 08:20:33;;;;;;;6.13;3.53;;;5.20;99.90;;;;;;5034179;28;20575;-78
2023/04/02 08:22:59;;;;;;;5.93;2.87;;;5.20;99.90;;;;;;5036148;28;20188;-78
2023/04/02 08:25:25;;;;;;;5.93;3.90;;;5.30;99.90;;;;;;5034922;28;20180;-78
2023/04/02 08:27:51;;;;;;;4.77;2.87;;;5.30;99.90;;;;;;5036147;28;20173;-79
2023/04/02 08:30:17;;;;;;;4.80;3.10;;;5.30;99.90;;;;;;5036506;28;20266;-79
2023/04/02 08:32:42;;;;;;;6.60;3.30;;;5.30;99.90;;;;;;5036507;28;20191;-77
2023/04/02 08:35:11;;;;;;;4.37;3.00;;;5.30;99.90;;;;;;5035483;28;20255;-78
2023/04/02 08:37:37;;;;;;;5.60;3.60;;;5.30;99.90;;;;;;5036354;28;20267;-78
2023/04/02 08:40:05;;;;;;;6.43;2.97;;;5.30;99.90;;;;;;5038077;28;20231;-79
2023/04/02 08:42:45;;;;;;;7.60;2.77;;;5.30;99.90;;;;;;5037849;28;20259;-78
2023/04/02 08:45:46;;;;;;;6.00;2.90;;;5.40;99.90;;;;;;5038526;28;20183;-78
2023/04/02 08:48:13;;;;;;;4.73;2.80;;;5.30;99.90;;;;;;5038026;28;20225;-80
2023/04/02 08:50:41;;;;;;;4.73;2.47;;;5.40;99.90;;;;;;5040074;28;20741;-80
2023/04/02 08:53:21;;;;;;;6.30;2.90;;;5.50;99.90;;;;;;5037876;28;20212;-78
2023/04/02 08:56:19;;;;;;;4.57;2.83;;;5.50;99.90;;;;;;5041258;28;20156;-78
2023/04/02 08:58:55;;;;;;;5.93;2.63;;;5.40;99.90;;;;;;5038644;28;20203;-78
2023/04/02 09:01:30;;;;;;;5.13;2.33;;;5.50;99.90;;;;;;5037048;28;20152;-79
2023/04/02 09:03:57;;;;;;;5.47;2.67;;;5.50;99.90;;;;;;5037332;28;20145;-78
2023/04/02 09:06:23;;;;;;;5.70;2.87;;;5.60;99.90;;;;;;5036318;28;20208;-78
2023/04/02 09:08:51;;;;;;;3.80;2.70;;;5.60;99.90;;;;;;5038075;28;20183;-78
2023/04/02 09:11:21;;;;;;;6.37;3.13;;;5.70;99.90;;;;;;5036035;28;20199;-77
2023/04/02 09:13:52;;;;;;;6.40;3.03;;;5.70;99.90;;;;;;5036920;28;20203;-78
2023/04/02 09:16:21;;;;;;;5.77;2.90;;;5.80;99.90;;;;;;5036587;28;20515;-79
2023/04/02 09:18:50;;;;;;;8.00;2.87;;;5.90;99.90;;;;;;5038209;28;20212;-78
2023/04/02 09:21:33;;;;;;;6.37;3.07;;;5.90;99.90;;;;;;5036809;28;20197;-78
2023/04/02 09:23:59;;;;;;;5.80;2.73;;;5.90;99.90;;;;;;5038372;28;20180;-78
2023/04/02 09:26:30;;;;;;;5.60;3.30;;;6.00;99.90;;;;;;5038390;28;20179;-79
2023/04/02 09:29:14;;;;;;;4.87;3.10;;;6.10;99.90;;;;;;5036894;28;20210;-78
2023/04/02 09:31:44;;;;;;;8.17;2.90;;;6.20;99.90;;;;;;5038714;28;20535;-79
2023/04/02 09:34:33;;;;;;;4.63;2.60;;;6.30;99.90;;;;;;5037712;28;20184;-79
2023/04/02 09:37:16;;;;;;;7.10;2.67;;;6.40;99.90;;;;;;5039134;28;20570;-79
2023/04/02 09:39:42;;;;;;;5.67;3.07;;;6.40;99.90;;;;;;5039718;28;20192;-79
2023/04/02 09:42:32;;;;;;;4.87;2.77;;;6.40;99.90;;;;;;5037201;28;20283;-79
2023/04/02 09:45:18;;;;;;;8.80;3.13;;;6.50;99.90;;;;;;5037438;28;20218;-78
2023/04/02 09:47:43;;;;;;;5.30;2.93;;;6.60;99.90;;;;;;5038209;28;20226;-79
2023/04/02 09:50:28;;;;;;;4.57;2.60;;;6.60;99.90;;;;;;5037813;28;20263;-78
2023/04/02 09:52:53;;;;;;;8.97;2.60;;;6.60;99.90;;;;;;5039366;28;20302;-79
2023/04/02 09:55:25;;;;;;;7.27;3.00;;;6.60;99.90;;;;;;5039031;28;20179;-79
2023/04/02 09:58:15;;;;;;;3.40;2.30;;;6.60;99.90;;;;;;5037610;28;20164;-78
2023/04/02 10:00:51;;;;;;;3.63;2.50;;;6.60;99.90;;;;;;5039090;28;20153;-79
2023/04/02 10:03:25;;;;;;;4.73;2.53;;;6.60;99.90;;;;;;5038025;28;20192;-78
2023/04/02 10:06:10;;;;;;;3.97;2.17;;;6.60;99.90;;;;;;5038839;28;20165;-78
2023/04/02 10:08:38;;;;;;;4.63;2.20;;;6.60;99.90;;;;;;5037401;28;20168;-79
2023/04/02 10:11:20;;;;;;;4.83;1.80;;;6.60;99.90;;;;;;5035861;28;20219;-80
2023/04/02 10:14:04;;;;;;;6.13;2.47;;;6.60;99.90;;;;;;5036305;28;20165;-80
2023/04/02 10:16:44;;;;;;;5.27;2.47;;;6.50;99.90;;;;;;5036385;28;20160;-80
2023/04/02 10:19:18;;;;;;;3.47;2.23;;;6.60;99.90;;;;;;5038005;28;20290;-81
2023/04/02 10:21:47;;;;;;;5.37;2.30;;;6.50;99.90;;;;;;5040500;28;20246;-81
2023/04/02 10:24:15;;;;;;;5.77;2.17;;;6.60;99.90;;;;;;5041563;28;20215;-81
2023/04/02 10:27:08;;;;;;;4.33;2.20;;;6.60;99.90;;;;;;5039454;28;20356;-81
2023/04/02 10:30:23;;;;;;;5.57;2.20;;;6.50;99.90;;;;;;5038448;28;20549;-81
2023/04/02 10:33:04;;;;;;;4.63;2.03;;;6.60;99.90;;;;;;5015533;28;20211;-82
2023/04/02 10:36:05;;;;;;;3.67;2.13;;;6.50;99.90;;;;;;5037441;28;20172;-81
2023/04/02 10:38:54;;;;;;;2.73;2.13;;;6.50;99.90;;;;;;5022203;28;20227;-81
2023/04/02 10:41:20;;;;;;;4.10;1.93;;;6.60;99.90;;;;;;5037741;28;20164;-81
2023/04/02 10:44:27;;;;;;;4.90;1.90;;;6.60;99.90;;;;;;5038131;28;20168;-82
2023/04/02 10:47:01;;;;;;;7.23;2.83;;;6.50;99.90;;;;;;5028163;28;20754;-81
2023/04/02 10:50:03;;;;;;;3.37;2.07;;;6.50;99.90;;;;;;5037555;28;20504;-81
2023/04/02 10:52:37;;;;;;;4.53;2.20;;;6.60;99.90;;;;;;5018656;28;20207;-82
2023/04/02 10:55:12;;;;;;;5.50;2.40;;;6.70;99.90;;;;;;5038568;28;20164;-81
2023/04/02 10:57:42;;;;;;;4.63;2.43;;;6.70;99.90;;;;;;5037284;28;20174;-81
2023/04/02 11:00:11;;;;;;;3.07;2.40;;;6.80;99.90;;;;;;5037672;28;20647;-80
2023/04/02 11:02:58;;;;;;;4.30;2.67;;;6.80;99.90;;;;;;5036971;28;20188;-82
2023/04/02 11:05:35;;;;;;;6.20;2.63;;;6.80;99.90;;;;;;5038161;28;20217;-82
2023/04/02 11:08:15;;;;;;;3.30;2.30;;;6.80;99.90;;;;;;5035537;28;20168;-81
2023/04/02 11:10:48;;;;;;;8.10;2.70;;;6.80;99.90;;;;;;5036086;28;20190;-81
2023/04/02 11:13:33;;;;;;;3.30;2.07;;;6.80;99.90;;;;;;5035987;28;20282;-81
2023/04/02 11:15:58;;;;;;;6.00;1.90;;;6.70;99.90;;;;;;5037227;28;20209;-81
2023/04/02 11:18:28;;;;;;;2.63;2.03;;;6.70;99.90;;;;;;5037458;28;20203;-79
2023/04/02 11:20:57;;;;;;;6.00;2.37;;;6.70;99.90;;;;;;5037373;28;20232;-79
2023/04/02 11:23:26;;;;;;;4.40;2.43;;;6.60;99.90;;;;;;5037578;28;20192;-79
2023/04/02 11:26:30;;;;;;;5.07;2.37;;;6.60;99.90;;;;;;5038667;28;20536;-79
2023/04/02 11:29:25;;;;;;;3.43;2.23;;;6.70;99.90;;;;;;5036511;28;20182;-78
2023/04/02 11:32:23;;;;;;;2.80;1.83;;;6.70;99.90;;;;;;5037265;28;20208;-79
2023/04/02 11:34:49;;;;;;;5.70;2.63;;;6.70;99.90;;;;;;5035398;28;20165;-79
2023/04/02 11:37:33;;;;;;;4.30;2.07;;;6.70;99.90;;;;;;5037280;28;20203;-79
2023/04/02 11:40:04;;;;;;;8.57;2.47;;;6.80;99.90;;;;;;5033028;28;20223;-79
2023/04/02 11:42:35;;;;;;;4.07;2.50;;;6.80;99.90;;;;;;5037822;28;20188;-79
2023/04/02 11:45:19;;;;;;;5.53;2.40;;;6.90;99.90;;;;;;5038347;28;20179;-80
2023/04/02 11:48:16;;;;;;;3.47;2.60;;;6.90;99.90;;;;;;5034681;28;20226;-77
2023/04/02 11:50:44;;;;;;;4.37;2.43;;;6.90;99.90;;;;;;5038378;28;20596;-79
2023/04/02 11:53:10;;;;;;;5.33;2.30;;;6.90;99.90;;;;;;5037079;28;20196;-79
2023/04/02 11:56:06;;;;;;;4.23;2.33;;;7.00;99.90;;;;;;5036357;28;20203;-78
2023/04/02 11:58:51;;;;;;;3.07;2.00;;;7.10;99.90;;;;;;5025905;28;20219;-79
2023/04/02 12:01:32;;;;;;;4.37;2.23;;;7.00;99.90;;;;;;5035676;28;20175;-79
2023/04/02 12:04:10;;;;;;;2.37;1.87;;;6.90;99.90;;;;;;5034637;28;20167;-78
2023/04/02 12:06:45;;;;;;;3.63;2.00;;;7.00;99.90;;;;;;5033849;28;20675;-78
2023/04/02 12:09:33;;;;;;;4.03;2.10;;;7.00;99.90;;;;;;5034497;28;20195;-78
2023/04/02 12:12:14;;;;;;;3.23;1.80;;;7.00;1.00;;;;;;5037074;28;20270;-78
2023/04/02 12:14:47;;;;;;;2.40;1.90;;;7.00;1.00;;;;;;5037291;28;20168;-77
2023/04/02 12:17:37;;;;;;;2.37;2.10;;;7.00;1.00;;;;;;5036391;28;20172;-78
2023/04/02 12:20:19;;;;;;;2.27;1.63;;;7.10;1.00;;;;;;5032527;28;20278;-78
2023/04/02 12:22:53;;;;;;;2.80;1.80;;;7.00;99.90;;;;;;5038861;28;20215;-77
2023/04/02 12:25:31;;;;;;;4.70;2.13;;;7.10;99.90;;;;;;5037877;28;20207;-77
2023/04/02 12:28:16;;;;;;;2.60;1.70;;;7.10;1.00;;;;;;5036098;28;20260;-78
2023/04/02 12:30:43;;;;;;;4.00;1.77;;;7.10;1.00;;;;;;5035938;28;20259;-77
2023/04/02 12:33:21;;;;;;;2.63;1.80;;;7.00;99.90;;;;;;5037502;28;20192;-78
2023/04/02 12:35:52;;;;;;;2.40;1.50;;;7.10;1.00;;;;;;5038668;28;20180;-78
2023/04/02 12:38:48;;;;;;;3.70;1.50;;;7.10;1.00;;;;;;5038764;28;20202;-78
2023/04/02 12:41:32;;;;;;;2.40;1.57;;;7.20;1.00;;;;;;5036859;28;20189;-78
2023/04/02 12:44:10;;;;;;;2.00;1.43;;;7.20;1.00;;;;;;5037633;28;20179;-77
2023/04/02 12:46:37;;;;;;;2.80;1.67;;;7.20;99.90;;;;;;5037052;28;20232;-76
2023/04/02 12:49:11;;;;;;;2.13;1.67;;;7.20;99.90;;;;;;5035048;28;20260;-76
2023/04/02 12:51:37;;;;;;;1.77;1.50;;;7.10;1.00;;;;;;5034985;28;20169;-77
2023/04/02 12:54:04;;;;;;;1.77;1.53;;;7.20;99.90;;;;;;5036322;28;20176;-78
2023/04/02 12:56:29;;;;;;;3.00;2.27;;;7.20;1.00;;;;;;5038713;28;20172;-77
2023/04/02 12:58:59;;;;;;;4.13;1.50;;;7.30;99.90;;;;;;5037310;28;20688;-76
2023/04/02 13:01:30;;;;;;;3.40;1.70;;;7.30;1.00;;;;;;5036268;28;20230;-78
2023/04/02 13:04:07;;;;;;;3.40;1.70;;;7.30;99.90;;;;;;5037848;28;20235;-77
2023/04/02 13:06:35;;;;;;;3.10;1.80;;;7.30;1.00;;;;;;5035275;28;20524;-78
2023/04/02 13:09:03;;;;;;;1.93;1.43;;;7.40;1.00;;;;;;5034337;28;20176;-77
2023/04/02 13:11:39;;;;;;;1.60;1.17;;;7.30;99.90;;;;;;5033671;28;20195;-77
2023/04/02 13:14:18;;;;;;;2.63;1.50;;;7.30;99.90;;;;;;5033673;28;20172;-77
2023/04/02 13:16:44;;;;;;;4.83;1.73;;;7.30;99.90;;;;;;5035446;28;20191;-78
2023/04/02 13:19:16;;;;;;;2.10;1.50;;;7.30;1.00;;;;;;5034279;28;20680;-77
2023/04/02 13:21:41;;;;;;;2.33;1.33;;;7.30;99.90;;;;;;5034318;28;20203;-77
2023/04/02 13:24:16;;;;;;;2.40;1.23;;;7.30;99.90;;;;;;5035814;28;20184;-78
2023/04/02 13:26:42;;;;;;;2.77;1.57;;;7.20;1.00;;;;;;5038458;28;20210;-79
2023/04/02 13:29:22;;;;;;;2.53;1.43;;;7.30;99.90;;;;;;5038100;28;20180;-79
2023/04/02 13:31:49;;;;;;;3.40;1.93;;;7.30;99.90;;;;;;5037646;28;20198;-80
2023/04/02 13:34:14;;;;;;;3.50;1.20;;;7.20;1.00;;;;;;5037302;28;20176;-79
2023/04/02 13:36:40;;;;;;;2.13;1.47;;;7.30;99.90;;;;;;5036446;28;20180;-79
2023/04/02 13:39:06;;;;;;;2.00;1.40;;;7.30;1.00;;;;;;5035557;28;20295;-79